M I D A S
Marine Information and Data Acquisition System
Tripno 1471 of the Zeeleeuw from 2008-02-21 08:08:07 to 2008-02-21 13:14:37
Back to CruiseResearch ActivitiesStationsMapUnderway DataData graphs

EquipmentUnitsComment
TimeDGPSUTC
LatitudeDGPSDM.mWGS84
LongitudeDGPSDM.mWGS84
HeadingGyrodeg 
SOGDGPSknotsSpeed over ground
COGDGPSdegCourse over ground
DepthEcho soundermeters200 kHz
Missing or incorrect values are displayed as -999
Navigation data collected by the RV Zeeleeuw from 2008-02-21 08:05:32 to 2008-02-21 13:29:38
Time Latitude Longitude Heading SOG COG Depth
2008-02-21 08:06:37 51°13.664 2°55.956 125.7 0.1 182 5.6
2008-02-21 08:07:36 51°13.663 2°55.956 116.1 0.1 197 -999
2008-02-21 08:08:34 51°13.662 2°55.955 108 0.1 204 5.7
2008-02-21 08:09:37 51°13.676 2°55.896 106.5 4 290 -999
2008-02-21 08:10:37 51°13.694 2°55.804 105.1 3.2 285 9
2008-02-21 08:11:37 51°13.703 2°55.777 80.9 0.5 57 11.2
2008-02-21 08:12:37 51°13.701 2°55.753 57.2 1.4 254 -999
2008-02-21 08:13:37 51°13.712 2°55.751 19.7 0.7 3 -999
2008-02-21 08:14:37 51°13.712 2°55.74 338.9 2.9 332 -999
2008-02-21 08:15:35 51°13.807 2°55.659 334.5 7.9 334 9.7
2008-02-21 08:16:34 51°13.915 2°55.576 333.9 6.6 333 10.4
2008-02-21 08:17:33 51°14.008 2°55.505 334.7 5.8 335 10.4
2008-02-21 08:18:37 51°14.101 2°55.434 334.1 6.9 333 -999
2008-02-21 08:19:37 51°14.229 2°55.307 322.6 10.3 321 -999
2008-02-21 08:20:35 51°14.343 2°55.106 308.8 11.2 307 10.7
2008-02-21 08:21:34 51°14.448 2°54.84 302.4 12.7 300 9.9
2008-02-21 08:22:33 51°14.533 2°54.54 286.3 12.6 280 9.6
2008-02-21 08:23:34 51°14.476 2°54.22 238 12.8 238 9.5
2008-02-21 08:24:34 51°14.377 2°53.919 246.6 12.9 247 8.9
2008-02-21 08:25:34 51°14.291 2°53.604 244.8 13 245 8.9
2008-02-21 08:26:34 51°14.21 2°53.284 249.4 13 249 9.3
2008-02-21 08:27:33 51°14.125 2°52.971 247.7 13.1 247 9.9
2008-02-21 08:28:33 51°14.038 2°52.653 245.2 13.1 244 10
2008-02-21 08:29:33 51°13.935 2°52.349 238.7 13 236 9.9
2008-02-21 08:30:33 51°13.812 2°52.063 238.7 13.1 240 10
2008-02-21 08:31:33 51°13.7 2°51.764 238.3 13.1 238 10.1
2008-02-21 08:32:33 51°13.59 2°51.465 241.6 13 241 10.2
2008-02-21 08:33:33 51°13.48 2°51.167 239.8 13 239 10.4
2008-02-21 08:34:33 51°13.371 2°50.868 239.6 13.1 239 10.5
2008-02-21 08:35:33 51°13.261 2°50.567 239.8 13.1 241 10.6
2008-02-21 08:36:33 51°13.156 2°50.259 239.8 13.3 240 10.7
2008-02-21 08:37:33 51°13.048 2°49.949 240.8 13.4 241 10.9
2008-02-21 08:38:33 51°12.941 2°49.637 240.1 13.4 241 11.2
2008-02-21 08:39:33 51°12.835 2°49.322 241.5 13.5 242 11.2
2008-02-21 08:40:33 51°12.726 2°49.009 240 13.5 241 11.4
2008-02-21 08:41:33 51°12.621 2°48.691 241.1 13.6 243 11.6
2008-02-21 08:42:33 51°12.513 2°48.376 239.7 13.6 241 11.8
2008-02-21 08:43:33 51°12.405 2°48.06 239.6 13.5 241 11.9
2008-02-21 08:44:33 51°12.295 2°47.746 240.3 13.5 241 12.1
2008-02-21 08:45:33 51°12.187 2°47.431 241.2 13.6 242 12.1
2008-02-21 08:46:33 51°12.082 2°47.112 243.5 13.6 245 12.1
2008-02-21 08:47:33 51°12.009 2°46.771 254.3 13.7 255 12.3
2008-02-21 08:48:33 51°11.946 2°46.422 253.1 13.7 253 12.4
2008-02-21 08:49:33 51°11.885 2°46.073 257.6 13.6 257 12.5
2008-02-21 08:50:33 51°11.834 2°45.721 256 13.7 256 12.5
2008-02-21 08:51:33 51°11.78 2°45.371 257.4 13.6 258 12.3
2008-02-21 08:52:33 51°11.728 2°45.022 255.5 13.5 256 12.3
2008-02-21 08:53:33 51°11.677 2°44.676 256.8 13.4 257 12.1
2008-02-21 08:54:33 51°11.623 2°44.332 255.8 13.4 256 12
2008-02-21 08:55:33 51°11.573 2°43.988 255.7 13.2 256 11.8
2008-02-21 08:56:33 51°11.534 2°43.643 260.1 13.2 260 11.5
2008-02-21 08:57:33 51°11.488 2°43.307 253.9 12.8 251 11.1
2008-02-21 08:58:33 51°11.4 2°42.997 242.3 12.9 244 11.3
2008-02-21 08:59:33 51°11.303 2°42.688 242.7 13.1 244 11.4
2008-02-21 09:00:33 51°11.209 2°42.375 242.4 13.1 244 11.5
2008-02-21 09:01:33 51°11.113 2°42.063 242.9 13.2 244 11.7
2008-02-21 09:02:33 51°11.019 2°41.748 242.4 13.2 243 11.9
2008-02-21 09:03:33 51°10.924 2°41.433 243.8 13.2 245 11.9
2008-02-21 09:04:33 51°10.827 2°41.12 243 13.1 245 12
2008-02-21 09:05:33 51°10.731 2°40.808 244.1 13.2 244 12.4
2008-02-21 09:06:33 51°10.634 2°40.496 242.8 13.2 243 12.9
2008-02-21 09:07:33 51°10.536 2°40.183 243.2 13.2 244 13.2
2008-02-21 09:08:33 51°10.439 2°39.869 242.7 13.2 244 13.6
2008-02-21 09:09:33 51°10.344 2°39.553 244 13.2 244 14
2008-02-21 09:10:33 51°10.246 2°39.24 242.8 13.2 244 14.5
2008-02-21 09:11:33 51°10.149 2°38.924 243.9 13.3 244 14.7
2008-02-21 09:12:33 51°10.052 2°38.608 243 13.3 243 14.9
2008-02-21 09:13:33 51°9.955 2°38.292 243.8 13.3 245 15.3
2008-02-21 09:14:33 51°9.862 2°37.972 247.8 13.3 248 15.7
2008-02-21 09:15:33 51°9.778 2°37.647 247.4 13.3 248 16.1
2008-02-21 09:16:33 51°9.694 2°37.322 247 13.3 247 16
2008-02-21 09:17:33 51°9.609 2°36.997 247.5 13.3 248 15.7
2008-02-21 09:18:33 51°9.524 2°36.672 247.3 13.3 247 15.5
2008-02-21 09:19:33 51°9.453 2°36.396 247.3 8.7 246 16
2008-02-21 09:20:33 51°9.384 2°36.303 182.4 4.2 186 15.8
2008-02-21 09:21:33 51°9.327 2°36.355 123.5 4.4 130 15.9
2008-02-21 09:22:33 51°9.298 2°36.451 88.3 3 96 15.7
2008-02-21 09:23:33 51°9.305 2°36.513 68.6 2.1 71 15.8
2008-02-21 09:24:33 51°9.313 2°36.557 71.5 1.2 81 15.9
2008-02-21 09:25:33 51°9.312 2°36.574 90.4 0.6 103 15.7
2008-02-21 09:26:33 51°9.309 2°36.59 96.8 0.7 109 15.6
2008-02-21 09:27:33 51°9.304 2°36.607 98.6 0.8 119 15.4
2008-02-21 09:28:33 51°9.299 2°36.626 100.1 0.7 121 15.4
2008-02-21 09:29:33 51°9.294 2°36.644 101.6 0.8 116 15.3
2008-02-21 09:30:33 51°9.288 2°36.662 101.8 0.8 117 15
2008-02-21 09:31:33 51°9.282 2°36.681 102.5 0.8 112 14.8
2008-02-21 09:32:33 51°9.275 2°36.701 101.3 0.8 110 14.6
2008-02-21 09:33:33 51°9.271 2°36.722 100 0.9 112 14.4
2008-02-21 09:34:33 51°9.266 2°36.745 103.2 0.9 114 14.1
2008-02-21 09:35:33 51°9.259 2°36.767 104.3 0.9 117 13.9
2008-02-21 09:36:33 51°9.253 2°36.789 103.2 0.9 113 13.7
2008-02-21 09:37:33 51°9.246 2°36.811 103.7 0.9 114 13.5
2008-02-21 09:38:33 51°9.24 2°36.833 104.7 0.9 108 13.3
2008-02-21 09:39:33 51°9.235 2°36.858 106.3 1 114 13.1
2008-02-21 09:40:33 51°9.228 2°36.883 107.1 1 111 12.9
2008-02-21 09:41:33 51°9.223 2°36.909 106.5 1.1 104 12.6
2008-02-21 09:42:33 51°9.216 2°36.937 105.4 1.1 107 12.5
2008-02-21 09:43:33 51°9.212 2°36.967 103.3 1.1 103 12.3
2008-02-21 09:44:33 51°9.209 2°36.994 104.4 1 106 12.3
2008-02-21 09:45:33 51°9.204 2°37.018 114.4 0.8 108 12.1
2008-02-21 09:46:33 51°9.2 2°37.036 125.2 0.6 117 11.9
2008-02-21 09:47:33 51°9.192 2°37.059 123 1.4 120 11.7
2008-02-21 09:48:33 51°9.187 2°37.078 129.5 0.6 107 11.6
2008-02-21 09:49:33 51°9.184 2°37.092 137.1 0.6 111 11.6
2008-02-21 09:50:37 51°9.181 2°37.107 144.1 0.6 114 11.5
2008-02-21 09:51:37 51°9.176 2°37.122 150.6 0.6 113 11.4
2008-02-21 09:52:37 51°9.172 2°37.138 154.2 0.7 105 -999
2008-02-21 09:53:37 51°9.169 2°37.154 152.9 0.7 110 -999
2008-02-21 09:54:37 51°9.166 2°37.172 153.1 0.7 101 11.3
2008-02-21 09:55:36 51°9.164 2°37.189 153 0.7 102 11.2
2008-02-21 09:56:34 51°9.138 2°37.208 183.8 3.7 183 10.9
2008-02-21 09:57:33 51°9.101 2°37.126 273.4 3.5 273 10.9
2008-02-21 09:58:33 51°9.112 2°37.102 328.2 0.5 34 11
2008-02-21 09:59:33 51°9.119 2°37.114 343.8 0.7 53 11
2008-02-21 10:00:33 51°9.125 2°37.13 341 0.8 66 11
2008-02-21 10:01:33 51°9.129 2°37.149 339.4 0.8 77 11.1
2008-02-21 10:02:33 51°9.133 2°37.17 343.2 0.8 74 11.2
2008-02-21 10:03:33 51°9.137 2°37.191 344.5 0.8 72 11.2
2008-02-21 10:04:33 51°9.142 2°37.214 340.8 0.9 70 11.3
2008-02-21 10:05:33 51°9.146 2°37.236 336.3 0.8 68 11.3
2008-02-21 10:06:33 51°9.151 2°37.259 336.1 0.9 67 11.3
2008-02-21 10:07:33 51°9.156 2°37.282 336 0.9 69 11.3
2008-02-21 10:08:33 51°9.161 2°37.305 334.8 1 71 11.4
2008-02-21 10:09:33 51°9.166 2°37.329 334.7 1 71 11.4
2008-02-21 10:10:33 51°9.171 2°37.354 335.7 0.9 76 11.4
2008-02-21 10:11:33 51°9.176 2°37.379 337.7 1 74 11.5
2008-02-21 10:12:33 51°9.18 2°37.404 337.3 1 75 11.4
2008-02-21 10:13:33 51°9.186 2°37.432 339.4 1.1 76 11.6
2008-02-21 10:14:33 51°9.19 2°37.461 341.3 1.2 78 11.6
2008-02-21 10:15:33 51°9.194 2°37.489 341.6 1.1 76 11.6
2008-02-21 10:16:33 51°9.199 2°37.518 343.2 1.1 79 11.6
2008-02-21 10:17:33 51°9.204 2°37.546 342.7 1.1 77 11.7
2008-02-21 10:18:33 51°9.208 2°37.575 341.8 1.1 73 11.7
2008-02-21 10:19:33 51°9.214 2°37.605 340.9 1.3 73 11.7
2008-02-21 10:20:33 51°9.22 2°37.635 339 1.2 74 11.6
2008-02-21 10:21:33 51°9.226 2°37.668 336.5 1.3 76 11.9
2008-02-21 10:22:33 51°9.231 2°37.701 339.1 1.4 74 11.9
2008-02-21 10:23:33 51°9.237 2°37.735 340.2 1.4 76 11.8
2008-02-21 10:24:33 51°9.273 2°37.748 335.6 5.4 343 11.9
2008-02-21 10:25:33 51°9.334 2°37.613 274.5 6.1 275 12.7
2008-02-21 10:26:33 51°9.294 2°37.511 216.9 3.2 206 12.7
2008-02-21 10:27:33 51°9.255 2°37.509 195 2 164 12.4
2008-02-21 10:28:33 51°9.222 2°37.529 192 1.8 150 12.2
2008-02-21 10:29:33 51°9.203 2°37.559 186.8 1.5 123 12
2008-02-21 10:30:33 51°9.195 2°37.595 183.1 1.5 104 11.9
2008-02-21 10:31:33 51°9.191 2°37.635 176.4 1.5 95 11.9
2008-02-21 10:32:33 51°9.179 2°37.674 181.5 2.9 154 11.8
2008-02-21 10:33:33 51°9.131 2°37.683 211.5 3.1 195 11.6
2008-02-21 10:34:33 51°9.084 2°37.637 228.5 3.4 219 11.3
2008-02-21 10:35:33 51°9.053 2°37.569 251.8 3.1 251 11.4
2008-02-21 10:36:33 51°9.041 2°37.488 256.9 3.1 257 11.3
2008-02-21 10:37:33 51°9.031 2°37.409 256.8 3 261 11.4
2008-02-21 10:38:33 51°9.025 2°37.332 259.4 2.9 264 11.4
2008-02-21 10:39:33 51°9.02 2°37.255 263 3 269 11.4
2008-02-21 10:40:33 51°9.019 2°37.178 263.3 2.9 268 11.4
2008-02-21 10:41:33 51°9.017 2°37.101 262.6 2.9 266 11.5
2008-02-21 10:42:33 51°9.013 2°37.025 262.5 2.9 267 11.6
2008-02-21 10:43:33 51°9.01 2°36.948 262.2 2.9 266 11.7
2008-02-21 10:44:33 51°9.008 2°36.872 262.9 2.9 269 11.9
2008-02-21 10:45:33 51°9.006 2°36.797 262.3 2.8 266 12
2008-02-21 10:46:33 51°9.004 2°36.721 262.6 3 268 12.2
2008-02-21 10:47:33 51°9.002 2°36.64 262.2 3.1 269 12.3
2008-02-21 10:48:33 51°9 2°36.557 262.1 3.1 268 12.8
2008-02-21 10:49:33 51°8.999 2°36.476 262.4 3.1 269 13.1
2008-02-21 10:50:33 51°8.999 2°36.395 261.9 3 268 13.5
2008-02-21 10:51:33 51°8.998 2°36.314 262.6 3.1 270 14
2008-02-21 10:52:33 51°8.998 2°36.232 262.3 3.1 269 14.6
2008-02-21 10:53:33 51°8.998 2°36.151 261.3 3 268 15.2
2008-02-21 10:54:33 51°8.993 2°36.073 256.7 2.9 262 15.8
2008-02-21 10:55:33 51°8.987 2°35.995 256.9 2.9 265 16.2
2008-02-21 10:56:33 51°8.981 2°35.92 256.7 2.9 264 16.7
2008-02-21 10:57:33 51°8.976 2°35.845 257.2 2.8 265 17.1
2008-02-21 10:58:33 51°8.973 2°35.769 257.1 2.9 265 17.6
2008-02-21 10:59:33 51°8.971 2°35.693 257.2 2.8 264 18
2008-02-21 11:00:33 51°8.968 2°35.62 257 2.8 268 18.4
2008-02-21 11:01:33 51°8.966 2°35.546 257 2.8 268 18.7
2008-02-21 11:02:33 51°8.963 2°35.474 256.7 2.7 268 19
2008-02-21 11:03:33 51°8.961 2°35.403 256.8 2.7 266 19
2008-02-21 11:04:33 51°8.961 2°35.331 256.8 2.7 267 19.3
2008-02-21 11:05:33 51°8.957 2°35.262 251.3 2.6 254 19.2
2008-02-21 11:06:33 51°8.948 2°35.191 251.8 2.8 258 19.2
2008-02-21 11:07:33 51°8.938 2°35.119 251.8 2.8 259 19.3
2008-02-21 11:08:33 51°8.929 2°35.047 252.3 2.9 262 19.3
2008-02-21 11:09:33 51°8.92 2°34.973 252.6 2.8 258 19.6
2008-02-21 11:10:33 51°8.912 2°34.899 252.5 2.9 261 19.6
2008-02-21 11:11:33 51°8.903 2°34.828 252.5 2.7 260 19.8
2008-02-21 11:12:33 51°8.896 2°34.755 252.2 2.9 260 19.9
2008-02-21 11:13:33 51°8.904 2°34.676 279.3 3.6 303 20.2
2008-02-21 11:14:33 51°8.952 2°34.631 312 3.2 354 19.7
2008-02-21 11:15:33 51°9.007 2°34.652 352.4 4.2 27 20.3
2008-02-21 11:16:33 51°9.06 2°34.738 54.3 4.8 60 20.2
2008-02-21 11:17:33 51°9.088 2°34.857 89.2 4.4 78 19.6
2008-02-21 11:18:33 51°9.102 2°34.948 112.8 3.2 76 19.4
2008-02-21 11:19:33 51°9.115 2°35.026 122 2.9 74 19.9
2008-02-21 11:20:33 51°9.129 2°35.097 133.2 2.7 73 20.1
2008-02-21 11:21:33 51°9.142 2°35.166 138.8 2.8 75 19.2
2008-02-21 11:22:33 51°9.153 2°35.236 143.9 2.9 84 19.3
2008-02-21 11:23:33 51°9.137 2°35.33 152.2 4.3 119 19.8
2008-02-21 11:24:33 51°9.095 2°35.405 184.7 2.6 140 19.7
2008-02-21 11:25:33 51°9.074 2°35.428 228.7 0.7 128 19.4
2008-02-21 11:26:33 51°9.084 2°35.43 281.9 2 343 19.7
2008-02-21 11:27:33 51°9.151 2°35.422 338.9 5.5 5 19.7
2008-02-21 11:28:33 51°9.242 2°35.463 1.7 5.7 23 20
2008-02-21 11:29:34 51°9.325 2°35.545 31.5 6 44 19.2
2008-02-21 11:30:33 51°9.375 2°35.673 64.4 5.2 65 20
2008-02-21 11:31:33 51°9.41 2°35.782 55.8 4.2 61 19.8
2008-02-21 11:32:33 51°9.442 2°35.879 64.6 4.1 65 19.9
2008-02-21 11:33:33 51°9.463 2°35.975 90.6 3.7 73 19.7
2008-02-21 11:34:33 51°9.477 2°36.064 111.5 3.3 78 20.1
2008-02-21 11:35:33 51°9.483 2°36.15 127.5 3.5 89 19.3
2008-02-21 11:36:33 51°9.479 2°36.246 136.8 3.7 99 19.9
2008-02-21 11:37:33 51°9.466 2°36.344 141.3 3.8 103 19.5
2008-02-21 11:38:33 51°9.451 2°36.444 144 3.8 104 19.6
2008-02-21 11:39:33 51°9.434 2°36.539 148.2 3.7 107 18.8
2008-02-21 11:40:33 51°9.415 2°36.63 152.4 3.5 109 19.3
2008-02-21 11:41:33 51°9.396 2°36.723 149.9 3.7 108 19.4
2008-02-21 11:42:33 51°9.38 2°36.823 143.6 4 104 18.8
2008-02-21 11:43:33 51°9.365 2°36.925 141.8 4 102 18
2008-02-21 11:44:33 51°9.355 2°37.033 124.4 4.2 91 17
2008-02-21 11:45:33 51°9.36 2°37.142 107.5 4.1 82 16.6
2008-02-21 11:46:33 51°9.373 2°37.245 97.7 3.9 78 16.2
2008-02-21 11:47:34 51°9.39 2°37.347 88.6 3.9 73 16
2008-02-21 11:48:33 51°9.411 2°37.443 81 3.9 70 15.8
2008-02-21 11:49:33 51°9.435 2°37.538 69.4 3.9 65 15.7
2008-02-21 11:50:33 51°9.464 2°37.629 55.5 3.9 61 15.8
2008-02-21 11:51:33 51°9.496 2°37.719 60.2 3.9 63 15.7
2008-02-21 11:52:34 51°9.525 2°37.814 67.7 3.9 64 15.7
2008-02-21 11:53:34 51°9.555 2°37.907 60.7 3.9 61 15.8
2008-02-21 11:54:34 51°9.586 2°38 59.5 4 61 15.8
2008-02-21 11:55:34 51°9.617 2°38.094 63.6 3.9 63 15.9
2008-02-21 11:56:34 51°9.645 2°38.186 67.5 3.9 65 15.8
2008-02-21 11:57:34 51°9.671 2°38.278 73.3 3.7 68 15.8
2008-02-21 11:58:34 51°9.695 2°38.369 78.5 3.7 69 15.8
2008-02-21 11:59:34 51°9.717 2°38.459 82.4 3.7 69 15.7
2008-02-21 12:00:34 51°9.738 2°38.548 83.1 3.6 70 15.6
2008-02-21 12:01:34 51°9.758 2°38.637 88.4 3.5 70 15.5
2008-02-21 12:02:34 51°9.776 2°38.725 89.8 3.5 71 15.4
2008-02-21 12:03:34 51°9.794 2°38.811 85.9 3.4 71 15.4
2008-02-21 12:04:34 51°9.813 2°38.896 91.4 3.4 74 15.3
2008-02-21 12:05:34 51°9.826 2°38.986 108.8 3.7 82 15.2
2008-02-21 12:06:34 51°9.826 2°39.084 124.9 3.8 95 15
2008-02-21 12:07:34 51°9.818 2°39.183 131.3 3.8 99 14.7
2008-02-21 12:08:34 51°9.808 2°39.286 129.3 3.9 101 14.5
2008-02-21 12:09:34 51°9.795 2°39.387 131.4 4 101 14.2
2008-02-21 12:10:34 51°9.783 2°39.489 130.2 4 101 13.9
2008-02-21 12:11:34 51°9.769 2°39.59 131 3.8 102 13.8
2008-02-21 12:12:34 51°9.757 2°39.692 130.8 3.9 101 13.6
2008-02-21 12:13:34 51°9.746 2°39.795 124.8 3.9 99 13.4
2008-02-21 12:14:34 51°9.733 2°39.893 138.8 3.5 106 13.1
2008-02-21 12:15:34 51°9.715 2°39.983 136.4 3.6 105 13
2008-02-21 12:16:34 51°9.704 2°40.08 123.2 3.8 98 12.7
2008-02-21 12:17:34 51°9.689 2°40.165 151.6 3 110 12.5
2008-02-21 12:18:34 51°9.668 2°40.226 177.5 2.3 127 12.4
2008-02-21 12:19:34 51°9.645 2°40.262 201.8 1.6 125 12.3
2008-02-21 12:20:34 51°9.639 2°40.304 194.6 1.8 94 12.1
2008-02-21 12:21:34 51°9.642 2°40.352 191.8 1.9 81 12.2
2008-02-21 12:22:34 51°9.65 2°40.402 188.3 2.1 73 12.3
2008-02-21 12:23:34 51°9.662 2°40.456 178.7 2.2 69 12.1
2008-02-21 12:24:34 51°9.676 2°40.511 164 2.3 66 12.2
2008-02-21 12:25:34 51°9.689 2°40.568 146.2 2.6 88 12.2
2008-02-21 12:26:34 51°9.694 2°40.683 75.7 6.5 70 12.1
2008-02-21 12:27:34 51°9.767 2°40.949 64.3 13.4 62 11.9
2008-02-21 12:28:34 51°9.878 2°41.272 61.4 14.1 60 11.8
2008-02-21 12:29:34 51°9.99 2°41.599 60.5 14 61 11.8
2008-02-21 12:30:34 51°10.098 2°41.927 62.9 14 61 11.9
2008-02-21 12:31:34 51°10.209 2°42.254 62.2 14.3 60 11.8
2008-02-21 12:32:34 51°10.319 2°42.583 61.9 14.1 62 11.9
2008-02-21 12:33:34 51°10.428 2°42.913 62.7 13.8 63 12.1
2008-02-21 12:34:34 51°10.539 2°43.239 63 14.1 62 12.2
2008-02-21 12:35:34 51°10.649 2°43.566 62.3 14 61 12.3
2008-02-21 12:36:34 51°10.764 2°43.889 58.7 14 56 12.5
2008-02-21 12:37:34 51°10.88 2°44.21 59.1 13.9 59 12.9
2008-02-21 12:38:34 51°10.995 2°44.533 60.7 14.1 62 13.2
2008-02-21 12:39:34 51°11.111 2°44.853 58.7 13.9 60 13.5
2008-02-21 12:40:34 51°11.231 2°45.177 60.6 14.2 61 13.9
2008-02-21 12:41:34 51°11.35 2°45.497 61.5 14 57 14.4
2008-02-21 12:42:34 51°11.464 2°45.82 60.9 14 63 14.6
2008-02-21 12:43:34 51°11.584 2°46.144 60.1 14.2 63 15
2008-02-21 12:44:34 51°11.706 2°46.47 60.3 14.3 59 15.3
2008-02-21 12:45:34 51°11.828 2°46.802 59.4 14.4 60 15.4
2008-02-21 12:46:34 51°11.949 2°47.134 60.9 14.5 60 15.5
2008-02-21 12:47:34 51°12.069 2°47.462 60.9 14.5 57 15.7
2008-02-21 12:48:34 51°12.19 2°47.793 61 14.5 61 15.6
2008-02-21 12:49:34 51°12.315 2°48.12 58.9 14.4 59 15.7
2008-02-21 12:50:34 51°12.442 2°48.441 59.2 14.5 56 15.6
2008-02-21 12:51:34 51°12.568 2°48.764 60.1 14.3 57 15.4
2008-02-21 12:52:34 51°12.693 2°49.085 60.4 14.3 61 15.3
2008-02-21 12:53:34 51°12.813 2°49.41 58.7 14.3 57 15.1
2008-02-21 12:54:34 51°12.939 2°49.737 60.3 14.6 57 15
2008-02-21 12:55:34 51°13.065 2°50.064 58.8 14.5 62 14.8
2008-02-21 12:56:34 51°13.191 2°50.39 58.4 14.6 61 14.7
2008-02-21 12:57:34 51°13.318 2°50.719 60.5 14.5 60 14.6
2008-02-21 12:58:34 51°13.446 2°51.045 58.6 14.5 57 14.4
2008-02-21 12:59:34 51°13.572 2°51.37 60.7 14.5 62 14.3
2008-02-21 13:00:34 51°13.701 2°51.698 57.6 14.5 57 14.1
2008-02-21 13:01:34 51°13.827 2°52.023 59.2 14.2 61 13.9
2008-02-21 13:02:34 51°13.953 2°52.349 60.1 14.5 58 13.9
2008-02-21 13:03:34 51°14.069 2°52.683 66.3 14.4 63 14
2008-02-21 13:04:34 51°14.174 2°53.02 67.4 12.5 61 13.8
2008-02-21 13:05:34 51°14.252 2°53.22 56.2 7 56 13.6
2008-02-21 13:06:34 51°14.3 2°53.358 75.3 5.3 66 13.4
2008-02-21 13:07:34 51°14.326 2°53.478 91.4 4.4 73 13.4
2008-02-21 13:08:34 51°14.345 2°53.584 94.5 3.9 74 13.3
2008-02-21 13:09:34 51°14.364 2°53.69 92.3 4.6 76 13.3
2008-02-21 13:10:34 51°14.385 2°53.821 87.7 5.7 77 13.3
2008-02-21 13:11:34 51°14.405 2°54.03 89.7 10 83 13
2008-02-21 13:12:34 51°14.422 2°54.296 89.1 9.1 83 12.9
2008-02-21 13:13:34 51°14.433 2°54.547 95.3 10.7 94 13.7
2008-02-21 13:14:34 51°14.403 2°54.869 109.4 13 108 13.6
2008-02-21 13:15:34 51°14.303 2°55.16 125.8 12.2 127 13.5
2008-02-21 13:16:34 51°14.176 2°55.364 147.4 8.1 149 14.4
2008-02-21 13:17:34 51°14.087 2°55.439 154.5 5.1 153 13.2
2008-02-21 13:18:34 51°14.02 2°55.494 154.1 4.3 150 14.6
2008-02-21 13:19:34 51°13.95 2°55.549 157 5.1 156 14.3
2008-02-21 13:20:38 51°13.863 2°55.611 157.7 5.5 157 -999
2008-02-21 13:21:38 51°13.79 2°55.67 151.7 4.4 150 -999
2008-02-21 13:22:38 51°13.733 2°55.731 144.2 3.9 143 -999
2008-02-21 13:23:38 51°13.685 2°55.797 132.2 3.8 132 -999
2008-02-21 13:24:38 51°13.659 2°55.875 96.8 2.8 101 -999
2008-02-21 13:25:38 51°13.659 2°55.936 85.5 1.8 85 -999
2008-02-21 13:26:38 51°13.66 2°55.959 109.1 0.2 37 -999
2008-02-21 13:27:38 51°13.661 2°55.961 114.6 0.1 29 -999
2008-02-21 13:28:38 51°13.662 2°55.959 124.5 0.4 303 -999